This is the latest recevied weather packets stored in our database for station/object KI7CSN-13. If no packets are shown the sender has not sent any weather packets the latest 10 day(s).
| Time | Temp. | Humidity | Pressure | Rain* | Wind** | Luminosity | Snow |
|---|---|---|---|---|---|---|---|
| 1778020060 | 17.22° C | 29% | 978.1 hPa | 0 mm | - | - | - |
| 1778019760 | 16.67° C | 30% | 978 hPa | 0 mm | - | - | - |
| 1778019460 | 17.22° C | 30% | 978.1 hPa | 0 mm | - | - | - |
| 1778019160 | 16.67° C | 31% | 978.1 hPa | 0 mm | - | - | - |
| 1778018860 | 17.22° C | 30% | 978.1 hPa | 0 mm | - | - | - |
| 1778018560 | 17.22° C | 29% | 978.2 hPa | 0 mm | - | - | - |
| 1778018260 | 17.22° C | 31% | 978.2 hPa | 0 mm | - | - | - |
| 1778017960 | 17.78° C | 29% | 978.2 hPa | 0 mm | - | - | - |
| 1778017660 | 17.78° C | 29% | 978.2 hPa | 0 mm | - | - | - |
| 1778017360 | 17.22° C | 31% | 978.4 hPa | 0 mm | - | - | - |
| 1778017060 | 17.22° C | 31% | 978.4 hPa | 0 mm | - | - | - |
| 1778016760 | 17.22° C | 29% | 978.5 hPa | 0 mm | - | - | - |
| 1778016460 | 18.33° C | 29% | 978.6 hPa | 0 mm | - | - | - |
| 1778016160 | 17.22° C | 31% | 978.6 hPa | 0 mm | - | - | - |
| 1778015860 | 16.67° C | 31% | 978.7 hPa | 0 mm | - | - | - |
| 1778015560 | 16.67° C | 31% | 978.7 hPa | 0 mm | - | - | - |
| 1778015260 | 17.78° C | 29% | 978.8 hPa | 0 mm | - | - | - |
| 1778014960 | 18.33° C | 29% | 978.8 hPa | 0 mm | - | - | - |
| 1778014660 | 17.22° C | 31% | 978.9 hPa | 0 mm | - | - | - |
| 1778014360 | 17.22° C | 31% | 978.9 hPa | 0 mm | - | - | - |
| 1778014060 | 18.89° C | 29% | 978.9 hPa | 0 mm | - | - | - |
| 1778013760 | 17.22° C | 31% | 978.8 hPa | 0 mm | - | - | - |
| 1778013460 | 17.22° C | 31% | 978.8 hPa | 0 mm | - | - | - |
| 1778013160 | 18.33° C | 29% | 978.8 hPa | 0 mm | - | - | - |
| 1778012860 | 17.22° C | 32% | 978.8 hPa | 0 mm | - | - | - |
* Rain latest hour (hover to see other rain measurements)
** Current wind speed in m/s (hover to see current wind gust speed)